createdAt,value
2019-03-09T00:01:02.822Z,14.93
2019-03-09T00:03:31.901Z,11.90
2019-03-09T00:06:01.203Z,12.33
2019-03-09T00:08:30.279Z,13.13
2019-03-09T00:11:00.206Z,10.33
2019-03-09T00:13:29.653Z,14.30
2019-03-09T00:15:58.734Z,15.23
2019-03-09T00:18:27.777Z,10.43
2019-03-09T00:20:56.834Z,15.63
2019-03-09T00:23:42.814Z,15.97
2019-03-09T00:26:22.248Z,12.73
2019-03-09T00:28:55.916Z,11.70
2019-03-09T00:31:35.694Z,14.93
2019-03-09T00:34:04.823Z,11.30
2019-03-09T00:36:33.948Z,13.43
2019-03-09T00:39:04.793Z,12.33
2019-03-09T00:41:33.958Z,12.77
2019-03-09T00:44:03.106Z,16.57
2019-03-09T00:46:32.186Z,10.27
2019-03-09T00:49:01.270Z,10.87
2019-03-09T00:51:30.326Z,11.13
2019-03-09T00:53:59.762Z,11.47
2019-03-09T00:56:29.137Z,11.30
2019-03-09T00:58:58.196Z,17.77
2019-03-09T01:01:27.278Z,12.17
2019-03-09T01:03:56.356Z,10.87
2019-03-09T01:06:25.401Z,13.20
2019-03-09T01:08:54.492Z,12.17
2019-03-09T01:11:33.539Z,16.50
2019-03-09T01:14:03.759Z,9.57
2019-03-09T01:16:32.801Z,14.10
2019-03-09T01:19:01.886Z,11.30
2019-03-09T01:21:30.940Z,10.97
2019-03-09T01:24:00.000Z,12.43
2019-03-09T01:26:29.082Z,10.43
2019-03-09T01:28:58.133Z,10.50
2019-03-09T01:31:27.773Z,9.53
2019-03-09T01:33:56.870Z,12.33
2019-03-09T01:36:25.986Z,14.63
2019-03-09T01:38:55.039Z,12.60
2019-03-09T01:41:24.156Z,18.53
2019-03-09T01:43:53.201Z,8.00
2019-03-09T01:46:37.366Z,16.57
2019-03-09T01:49:06.439Z,9.50
2019-03-09T01:51:35.528Z,8.97
2019-03-09T01:54:04.606Z,10.83
2019-03-09T01:56:33.689Z,10.20
2019-03-09T01:59:02.766Z,10.90
2019-03-09T02:01:31.813Z,12.87
2019-03-09T02:04:00.880Z,11.80
2019-03-09T02:06:29.937Z,8.57
2019-03-09T02:08:59.008Z,15.33
2019-03-09T02:11:28.065Z,17.43
2019-03-09T02:13:57.117Z,8.23
2019-03-09T02:16:26.157Z,9.13
2019-03-09T02:18:55.234Z,9.97
2019-03-09T02:21:24.282Z,14.90
2019-03-09T02:23:53.333Z,10.27
2019-03-09T02:26:22.392Z,12.80
2019-03-09T02:28:51.478Z,8.33
2019-03-09T02:31:20.569Z,11.40
2019-03-09T02:33:49.648Z,10.80
2019-03-09T02:36:18.733Z,11.30
2019-03-09T02:38:52.245Z,11.23
2019-03-09T02:41:21.324Z,14.40
2019-03-09T02:43:50.383Z,11.67
2019-03-09T02:46:19.443Z,9.63
2019-03-09T02:48:48.603Z,12.10
2019-03-09T02:51:17.767Z,11.03
2019-03-09T02:53:46.805Z,10.73
2019-03-09T02:56:15.894Z,15.17
2019-03-09T02:58:45.011Z,10.50
2019-03-09T03:01:21.645Z,8.73
2019-03-09T03:03:50.749Z,10.93
2019-03-09T03:06:19.861Z,8.67
2019-03-09T03:08:49.422Z,10.57
2019-03-09T03:11:18.569Z,10.40
2019-03-09T03:13:47.645Z,8.40
2019-03-09T03:16:17.518Z,9.47
2019-03-09T03:18:46.602Z,8.77
2019-03-09T03:21:15.682Z,11.00
2019-03-09T03:23:44.784Z,11.33
2019-03-09T03:26:13.822Z,9.30
2019-03-09T03:28:42.902Z,10.97
2019-03-09T03:31:13.919Z,9.40
2019-03-09T03:33:43.082Z,11.70
2019-03-09T03:36:12.158Z,11.80
2019-03-09T03:38:41.244Z,11.50
2019-03-09T03:41:10.406Z,12.87
2019-03-09T03:43:40.533Z,10.00
2019-03-09T03:46:09.624Z,10.27
2019-03-09T03:48:38.740Z,10.43
2019-03-09T03:51:07.901Z,11.37
2019-03-09T03:53:37.013Z,10.00
2019-03-09T03:56:06.122Z,12.43
2019-03-09T03:58:35.216Z,10.73
2019-03-09T04:01:04.272Z,9.77
2019-03-09T04:03:33.338Z,11.23
2019-03-09T04:06:02.393Z,10.77
2019-03-09T04:08:31.445Z,11.43
2019-03-09T04:11:00.515Z,13.00
2019-03-09T04:13:29.608Z,10.30
2019-03-09T04:15:58.658Z,11.10
2019-03-09T04:18:27.728Z,13.33
2019-03-09T04:20:56.805Z,9.67
2019-03-09T04:23:29.990Z,11.87
2019-03-09T04:25:59.071Z,11.47
2019-03-09T04:28:28.232Z,10.03
2019-03-09T04:30:57.366Z,12.53
2019-03-09T04:33:26.670Z,15.07
2019-03-09T04:35:55.730Z,14.30
2019-03-09T04:38:24.814Z,11.60
2019-03-09T04:40:53.862Z,12.67
2019-03-09T04:43:22.908Z,11.57
2019-03-09T04:45:52.014Z,10.43
2019-03-09T04:48:21.060Z,10.27
2019-03-09T04:50:50.131Z,13.50
2019-03-09T04:53:19.173Z,12.67
2019-03-09T04:55:48.332Z,11.23
2019-03-09T04:58:19.096Z,10.53
2019-03-09T05:00:48.137Z,12.27
2019-03-09T05:03:17.299Z,12.23
2019-03-09T05:05:46.386Z,11.93
2019-03-09T05:08:27.261Z,11.00
2019-03-09T05:10:59.500Z,7.87
2019-03-09T05:13:31.958Z,13.77
2019-03-09T05:16:01.028Z,10.07
2019-03-09T05:18:30.147Z,10.27
2019-03-09T05:20:59.222Z,10.77
2019-03-09T05:23:29.036Z,11.60
2019-03-09T05:25:58.090Z,11.47
2019-03-09T05:28:27.170Z,11.90
2019-03-09T05:30:56.245Z,12.30
2019-03-09T05:33:25.325Z,13.57
2019-03-09T05:35:54.364Z,8.57
2019-03-09T05:38:23.665Z,13.30
2019-03-09T05:40:56.661Z,9.73
2019-03-09T05:43:25.705Z,13.50
2019-03-09T05:45:54.833Z,10.47
2019-03-09T05:48:23.910Z,8.17
2019-03-09T05:50:52.989Z,8.90
2019-03-09T05:53:22.405Z,11.63
2019-03-09T05:55:51.485Z,9.27
2019-03-09T05:58:20.575Z,9.63
2019-03-09T06:00:49.685Z,11.77
2019-03-09T06:03:18.732Z,8.27
2019-03-09T06:05:49.228Z,17.87
2019-03-09T06:08:18.277Z,13.47
2019-03-09T06:10:47.359Z,13.20
2019-03-09T06:13:16.433Z,12.00
2019-03-09T06:15:45.545Z,14.70
2019-03-09T06:18:14.840Z,11.87
2019-03-09T06:20:44.273Z,10.60
2019-03-09T06:23:13.362Z,12.03
2019-03-09T06:25:42.401Z,7.27
2019-03-09T06:28:11.452Z,13.37
2019-03-09T06:30:40.501Z,14.07
2019-03-09T06:33:24.593Z,14.73
2019-03-09T06:36:03.158Z,11.00
2019-03-09T06:38:47.576Z,14.13
2019-03-09T06:41:19.965Z,16.57
2019-03-09T06:43:49.041Z,16.00
2019-03-09T06:46:18.118Z,11.33
2019-03-09T06:48:47.166Z,11.93
2019-03-09T06:51:16.249Z,12.87
2019-03-09T06:53:45.326Z,9.40
2019-03-09T06:56:14.405Z,12.07
2019-03-09T06:58:43.442Z,11.53
2019-03-09T07:01:20.246Z,19.10
2019-03-09T07:03:49.327Z,18.00
2019-03-09T07:06:18.473Z,18.67
2019-03-09T07:08:47.567Z,17.03
2019-03-09T07:11:16.714Z,14.60
2019-03-09T07:13:52.849Z,12.27
2019-03-09T07:16:16.570Z,12.57
2019-03-09T07:18:45.639Z,13.63
2019-03-09T07:21:14.673Z,9.73
2019-03-09T07:23:43.721Z,15.60
2019-03-09T07:26:12.771Z,9.87
2019-03-09T07:28:41.820Z,11.07
2019-03-09T07:31:10.902Z,8.27
2019-03-09T07:33:39.994Z,14.13
2019-03-09T07:36:09.073Z,10.00
2019-03-09T07:38:38.214Z,10.83
2019-03-09T07:41:07.256Z,9.77
2019-03-09T07:43:36.343Z,13.63
2019-03-09T07:46:05.422Z,10.33
2019-03-09T07:48:34.714Z,10.23
2019-03-09T07:51:03.775Z,11.23
2019-03-09T07:53:32.842Z,9.97
2019-03-09T07:56:01.921Z,10.97
2019-03-09T07:58:31.041Z,10.93
2019-03-09T08:01:00.149Z,13.97
2019-03-09T08:03:29.249Z,11.90
2019-03-09T08:05:58.307Z,6.63
2019-03-09T08:08:27.345Z,4.40
2019-03-09T08:10:56.453Z,5.33
2019-03-09T08:13:25.519Z,6.33
2019-03-09T08:15:54.562Z,6.63
2019-03-09T08:18:23.605Z,6.40
2019-03-09T08:20:52.651Z,4.97
2019-03-09T08:23:21.688Z,5.47
2019-03-09T08:25:51.404Z,5.23
2019-03-09T08:28:20.471Z,4.17
2019-03-09T08:30:49.508Z,5.63
2019-03-09T08:33:18.568Z,3.70
2019-03-09T08:35:47.650Z,5.57
2019-03-09T08:38:16.841Z,7.40
2019-03-09T08:40:45.985Z,4.87
2019-03-09T08:43:15.088Z,6.03
2019-03-09T08:45:44.228Z,6.60
2019-03-09T08:48:13.355Z,3.47
2019-03-09T08:50:42.548Z,4.27
2019-03-09T08:53:11.700Z,4.03
2019-03-09T08:55:40.830Z,5.40
2019-03-09T08:58:09.971Z,2.33
2019-03-09T09:00:39.083Z,2.47
2019-03-09T09:03:08.190Z,2.43
2019-03-09T09:05:39.507Z,2.30
2019-03-09T09:08:07.970Z,4.33
2019-03-09T09:10:37.380Z,3.90
2019-03-09T09:13:06.449Z,2.20
2019-03-09T09:15:35.524Z,5.07
2019-03-09T09:18:04.590Z,3.80
2019-03-09T09:20:33.661Z,3.90
2019-03-09T09:23:02.712Z,3.73
2019-03-09T09:25:31.779Z,3.57
2019-03-09T09:28:00.826Z,4.40
2019-03-09T09:30:31.047Z,4.60
2019-03-09T09:33:00.109Z,4.33
2019-03-09T09:35:29.144Z,4.23
2019-03-09T09:37:58.193Z,4.00
2019-03-09T09:40:28.208Z,5.13
2019-03-09T09:42:57.310Z,4.77
2019-03-09T09:45:26.377Z,4.30
2019-03-09T09:47:55.446Z,6.17
2019-03-09T09:50:24.490Z,8.23
2019-03-09T09:52:53.563Z,6.53
2019-03-09T09:55:22.644Z,4.73
2019-03-09T09:57:51.797Z,7.03
2019-03-09T10:00:28.352Z,6.67
2019-03-09T10:02:57.421Z,9.07
2019-03-09T10:05:26.794Z,4.80
2019-03-09T10:07:55.842Z,6.67
2019-03-09T10:10:24.938Z,11.97
2019-03-09T10:12:55.965Z,6.37
2019-03-09T10:15:29.548Z,7.27
2019-03-09T10:17:58.626Z,9.57
2019-03-09T10:20:27.719Z,6.67
2019-03-09T10:23:04.002Z,6.97
2019-03-09T10:25:27.537Z,5.40
2019-03-09T10:27:56.576Z,6.23
2019-03-09T10:30:25.695Z,5.90
2019-03-09T10:32:54.781Z,4.20
2019-03-09T10:35:23.968Z,5.87
2019-03-09T10:37:53.058Z,6.67
2019-03-09T10:40:22.109Z,9.83
2019-03-09T10:42:51.148Z,8.03
2019-03-09T10:45:21.058Z,6.67
2019-03-09T10:47:50.742Z,4.60
2019-03-09T10:50:20.536Z,8.83
2019-03-09T10:52:49.591Z,6.90
2019-03-09T10:55:23.157Z,10.67
2019-03-09T10:57:52.238Z,8.57
2019-03-09T11:00:23.646Z,7.23
2019-03-09T11:02:52.696Z,10.47
2019-03-09T11:05:21.740Z,7.63
2019-03-09T11:07:51.482Z,6.07
2019-03-09T11:10:20.520Z,4.47
2019-03-09T11:12:49.895Z,6.53
2019-03-09T11:15:19.041Z,7.53
2019-03-09T11:17:48.377Z,4.20
2019-03-09T11:20:19.845Z,6.07
2019-03-09T11:22:48.922Z,8.50
2019-03-09T11:25:18.304Z,7.20
2019-03-09T11:27:47.461Z,6.93
2019-03-09T11:30:24.963Z,11.17
2019-03-09T11:32:54.080Z,10.40
2019-03-09T11:35:23.111Z,7.70
2019-03-09T11:37:52.165Z,8.20
2019-03-09T11:40:21.255Z,8.27
2019-03-09T11:43:09.798Z,9.03
2019-03-09T11:45:38.853Z,8.13
2019-03-09T11:48:07.937Z,7.07
2019-03-09T11:50:37.031Z,6.83
2019-03-09T11:53:06.187Z,6.00
2019-03-09T11:55:35.228Z,6.03
2019-03-09T11:58:04.322Z,7.13
2019-03-09T12:00:35.053Z,10.80
2019-03-09T12:03:04.285Z,10.97
2019-03-09T12:05:33.410Z,6.93
2019-03-09T12:08:02.492Z,9.37
2019-03-09T12:10:31.563Z,6.00
2019-03-09T12:13:00.610Z,6.00
2019-03-09T12:15:29.703Z,11.93
2019-03-09T12:17:58.864Z,4.93
2019-03-09T12:20:29.838Z,8.40
2019-03-09T12:23:14.133Z,6.73
2019-03-09T12:25:43.179Z,8.90
2019-03-09T12:28:12.233Z,6.23
2019-03-09T12:30:41.464Z,8.23
2019-03-09T12:33:10.513Z,5.23
2019-03-09T12:35:39.611Z,7.03
2019-03-09T12:38:08.916Z,6.10
2019-03-09T12:40:37.997Z,7.90
2019-03-09T12:43:07.037Z,6.27
2019-03-09T12:45:36.126Z,4.93
2019-03-09T12:48:05.170Z,6.63
2019-03-09T12:50:34.284Z,5.20
2019-03-09T12:53:03.327Z,6.30
2019-03-09T12:55:32.415Z,7.23
2019-03-09T12:58:01.495Z,8.93
2019-03-09T13:00:30.599Z,6.33
2019-03-09T13:02:59.732Z,8.50
2019-03-09T13:05:28.901Z,6.13
2019-03-09T13:07:57.960Z,7.33
2019-03-09T13:10:26.994Z,6.67
2019-03-09T13:12:57.003Z,7.27
2019-03-09T13:15:26.146Z,5.87
2019-03-09T13:17:55.241Z,8.37
2019-03-09T13:20:24.328Z,8.70
2019-03-09T13:22:53.377Z,6.80
2019-03-09T13:25:22.526Z,9.10
2019-03-09T13:27:51.577Z,9.17
2019-03-09T13:30:23.233Z,9.57
2019-03-09T13:32:52.273Z,7.60
2019-03-09T13:35:22.302Z,11.77
2019-03-09T13:37:55.481Z,11.10
2019-03-09T13:40:24.822Z,5.80
2019-03-09T13:42:53.861Z,8.13
2019-03-09T13:45:22.913Z,6.93
2019-03-09T13:47:51.963Z,6.93
2019-03-09T13:50:21.209Z,11.00
2019-03-09T13:52:50.465Z,9.60
2019-03-09T13:55:19.513Z,7.07
2019-03-09T13:57:48.607Z,8.63
2019-03-09T14:00:18.657Z,11.17
2019-03-09T14:02:49.422Z,9.53
2019-03-09T14:05:18.505Z,13.40
2019-03-09T14:07:47.583Z,11.67
2019-03-09T14:10:17.209Z,8.93
2019-03-09T14:12:46.308Z,9.20
2019-03-09T14:15:17.334Z,8.70
2019-03-09T14:17:46.481Z,11.43
2019-03-09T14:20:16.183Z,8.40
2019-03-09T14:22:45.302Z,8.17
2019-03-09T14:25:15.999Z,10.20
2019-03-09T14:27:45.138Z,7.17
2019-03-09T14:30:18.013Z,12.87
2019-03-09T14:32:47.074Z,10.93
2019-03-09T14:35:16.130Z,8.80
2019-03-09T14:37:45.212Z,10.63
2019-03-09T14:40:15.235Z,9.87
2019-03-09T14:42:44.341Z,9.13
2019-03-09T14:45:19.161Z,10.50
2019-03-09T14:47:48.332Z,11.73
2019-03-09T14:50:17.459Z,11.17
2019-03-09T14:52:46.505Z,10.33
2019-03-09T14:55:15.662Z,7.67
2019-03-09T14:57:44.788Z,10.60
2019-03-09T15:00:20.180Z,9.07
2019-03-09T15:02:49.266Z,12.17
2019-03-09T15:05:18.346Z,12.80
2019-03-09T15:07:48.306Z,5.80
2019-03-09T15:10:17.434Z,10.63
2019-03-09T15:12:46.513Z,10.43
2019-03-09T15:15:17.757Z,9.00
2019-03-09T15:17:46.839Z,12.30
2019-03-09T15:20:17.086Z,7.37
2019-03-09T15:22:46.167Z,10.47
2019-03-09T15:25:19.039Z,10.43
2019-03-09T15:27:48.289Z,12.03
2019-03-09T15:30:19.530Z,8.37
2019-03-09T15:32:48.649Z,10.07
2019-03-09T15:35:17.897Z,8.37
2019-03-09T15:37:46.944Z,6.70
2019-03-09T15:40:19.584Z,11.97
2019-03-09T15:42:49.891Z,9.83
2019-03-09T15:45:19.771Z,9.50
2019-03-09T15:47:48.849Z,10.80
2019-03-09T15:50:22.181Z,9.60
2019-03-09T15:52:52.671Z,8.33
2019-03-09T15:55:21.810Z,13.40
2019-03-09T15:57:50.961Z,7.23
2019-03-09T16:00:23.712Z,8.20
2019-03-09T16:02:52.991Z,8.57
2019-03-09T16:05:22.096Z,7.30
2019-03-09T16:07:51.146Z,6.27
2019-03-09T16:10:22.957Z,9.63
2019-03-09T16:12:52.038Z,6.37
2019-03-09T16:15:21.257Z,9.37
2019-03-09T16:17:50.409Z,7.90
2019-03-09T16:20:29.461Z,5.80
2019-03-09T16:22:58.533Z,6.67
2019-03-09T16:25:28.971Z,8.40
2019-03-09T16:27:58.309Z,7.50
2019-03-09T16:30:27.462Z,7.17
2019-03-09T16:32:56.542Z,7.87
2019-03-09T16:35:26.302Z,6.63
2019-03-09T16:37:55.493Z,5.00
2019-03-09T16:40:25.469Z,5.63
2019-03-09T16:42:54.573Z,4.90
2019-03-09T16:45:43.357Z,4.67
2019-03-09T16:48:12.425Z,5.80
2019-03-09T16:50:41.468Z,3.23
2019-03-09T16:53:10.562Z,4.57
2019-03-09T16:55:39.645Z,8.60
2019-03-09T16:58:08.710Z,4.20
2019-03-09T17:00:37.785Z,3.23
2019-03-09T17:03:06.927Z,4.63
2019-03-09T17:05:35.998Z,6.00
2019-03-09T17:08:05.077Z,4.13
2019-03-09T17:10:34.154Z,2.83
2019-03-09T17:13:03.242Z,7.80
2019-03-09T17:15:32.392Z,3.73
2019-03-09T17:18:02.827Z,4.93
2019-03-09T17:20:32.000Z,5.77
2019-03-09T17:23:01.183Z,4.97
2019-03-09T17:25:30.260Z,5.63
2019-03-09T17:27:59.384Z,4.13
2019-03-09T17:30:28.549Z,4.80
2019-03-09T17:32:57.694Z,5.93
2019-03-09T17:35:28.426Z,3.60
2019-03-09T17:37:57.509Z,4.57
2019-03-09T17:40:27.646Z,4.70
2019-03-09T17:42:57.782Z,5.40
2019-03-09T17:45:27.646Z,4.60
2019-03-09T17:47:57.223Z,6.37
2019-03-09T17:50:26.610Z,7.37
2019-03-09T17:52:55.688Z,7.47
2019-03-09T17:55:25.005Z,6.67
2019-03-09T17:57:54.117Z,8.00
2019-03-09T18:00:30.033Z,5.37
2019-03-09T18:02:59.076Z,7.43
2019-03-09T18:05:29.069Z,6.00
2019-03-09T18:07:58.112Z,6.00
2019-03-09T18:10:34.159Z,7.70
2019-03-09T18:13:03.234Z,9.60
2019-03-09T18:15:32.305Z,5.67
2019-03-09T18:18:01.365Z,5.87
2019-03-09T18:20:30.450Z,4.33
2019-03-09T18:22:59.493Z,4.77
2019-03-09T18:25:28.545Z,4.10
2019-03-09T18:28:09.621Z,4.73
2019-03-09T18:30:38.722Z,6.87
2019-03-09T18:33:07.845Z,6.93
2019-03-09T18:35:36.924Z,5.77
2019-03-09T18:38:05.997Z,7.83
2019-03-09T18:40:35.071Z,6.80
2019-03-09T18:43:04.142Z,6.73
2019-03-09T18:45:33.224Z,9.03
2019-03-09T18:48:02.461Z,6.07
2019-03-09T18:50:31.605Z,6.03
2019-03-09T18:53:00.684Z,7.13
2019-03-09T18:55:29.762Z,5.70
2019-03-09T18:57:58.838Z,6.13
2019-03-09T19:00:27.917Z,9.53
2019-03-09T19:02:57.026Z,6.83
2019-03-09T19:05:26.070Z,6.93
2019-03-09T19:07:55.146Z,7.20
2019-03-09T19:10:24.650Z,7.73
2019-03-09T19:13:00.752Z,10.77
2019-03-09T19:15:29.825Z,9.13
2019-03-09T19:17:58.911Z,8.63
2019-03-09T19:20:27.965Z,13.17
2019-03-09T19:22:57.047Z,13.47
2019-03-09T19:25:26.086Z,8.27
2019-03-09T19:27:55.558Z,10.57
2019-03-09T19:30:24.643Z,12.80
2019-03-09T19:33:00.243Z,9.23
2019-03-09T19:35:24.443Z,7.93
2019-03-09T19:37:53.519Z,9.03
2019-03-09T19:40:22.660Z,10.90
2019-03-09T19:42:51.710Z,11.73
2019-03-09T19:45:21.686Z,9.33
2019-03-09T19:47:50.732Z,10.07
2019-03-09T19:50:27.670Z,10.20
2019-03-09T19:52:59.124Z,10.10
2019-03-09T19:55:28.111Z,9.57
2019-03-09T19:57:57.183Z,12.50
2019-03-09T20:00:26.262Z,12.47
2019-03-09T20:02:55.376Z,11.13
2019-03-09T20:05:24.422Z,10.53
2019-03-09T20:07:59.357Z,10.43
2019-03-09T20:10:28.808Z,10.17
2019-03-09T20:12:58.037Z,10.73
2019-03-09T20:15:27.123Z,18.97
2019-03-09T20:17:56.171Z,25.53
2019-03-09T20:20:26.281Z,20.30
2019-03-09T20:22:55.404Z,19.80
2019-03-09T20:25:24.490Z,11.17
2019-03-09T20:27:55.488Z,15.00
2019-03-09T20:30:24.620Z,12.13
2019-03-09T20:32:53.661Z,13.47
2019-03-09T20:35:22.745Z,9.90
2019-03-09T20:37:51.864Z,7.13
2019-03-09T20:40:21.171Z,7.27
2019-03-09T20:42:50.462Z,6.90
2019-03-09T20:45:23.497Z,8.83
2019-03-09T20:47:52.615Z,7.77
2019-03-09T20:50:23.521Z,7.17
2019-03-09T20:52:52.650Z,5.70
2019-03-09T20:55:21.785Z,6.83
2019-03-09T20:57:50.866Z,5.70
2019-03-09T21:00:23.196Z,2.80
2019-03-09T21:02:52.290Z,4.53
2019-03-09T21:05:21.378Z,4.37
2019-03-09T21:07:50.499Z,2.67
2019-03-09T21:10:22.531Z,5.10
2019-03-09T21:12:55.850Z,5.37
2019-03-09T21:15:25.014Z,3.57
2019-03-09T21:17:54.071Z,5.87
2019-03-09T21:20:23.125Z,6.37
2019-03-09T21:22:52.172Z,10.83
2019-03-09T21:25:21.266Z,6.17
2019-03-09T21:27:50.417Z,11.40
2019-03-09T21:30:19.565Z,17.40
2019-03-09T21:32:48.614Z,13.03
2019-03-09T21:35:17.927Z,13.97
2019-03-09T21:37:46.977Z,9.27
2019-03-09T21:40:16.977Z,12.70
2019-03-09T21:42:46.221Z,9.10
2019-03-09T21:45:15.343Z,9.33
2019-03-09T21:47:44.444Z,11.57
2019-03-09T21:50:18.198Z,13.27
2019-03-09T21:52:47.349Z,15.43
2019-03-09T21:55:17.000Z,9.13
2019-03-09T21:57:46.076Z,6.60
2019-03-09T22:00:20.233Z,7.90
2019-03-09T22:02:50.422Z,7.30
2019-03-09T22:05:19.762Z,6.13
2019-03-09T22:07:48.843Z,7.00
2019-03-09T22:10:17.902Z,9.67
2019-03-09T22:12:47.028Z,10.37
2019-03-09T22:15:17.215Z,14.13
2019-03-09T22:17:46.258Z,12.77
2019-03-09T22:20:15.440Z,7.47
2019-03-09T22:22:44.592Z,7.87
2019-03-09T22:25:17.973Z,9.10
2019-03-09T22:27:47.077Z,9.47
2019-03-09T22:30:21.321Z,9.17
2019-03-09T22:32:50.403Z,7.33
2019-03-09T22:35:19.467Z,8.27
2019-03-09T22:37:54.774Z,8.63
2019-03-09T22:40:24.134Z,10.13
2019-03-09T22:42:53.178Z,9.37
2019-03-09T22:45:22.311Z,7.37
2019-03-09T22:47:51.403Z,8.80
2019-03-09T22:50:22.280Z,5.57
2019-03-09T22:52:51.363Z,5.87
2019-03-09T22:55:20.594Z,12.80
2019-03-09T22:57:49.751Z,11.27
2019-03-09T23:00:22.247Z,15.00
2019-03-09T23:02:51.459Z,9.60
2019-03-09T23:05:20.530Z,9.27
2019-03-09T23:07:49.609Z,11.50
2019-03-09T23:10:21.171Z,8.33
2019-03-09T23:12:50.282Z,10.37
2019-03-09T23:15:19.499Z,9.63
2019-03-09T23:17:48.572Z,8.03
2019-03-09T23:20:17.727Z,11.87
2019-03-09T23:22:47.379Z,6.80
2019-03-09T23:25:16.717Z,8.77
2019-03-09T23:27:45.794Z,10.83
2019-03-09T23:30:16.625Z,5.43
2019-03-09T23:32:45.738Z,5.37
2019-03-09T23:35:14.866Z,6.97
2019-03-09T23:37:45.004Z,10.43
2019-03-09T23:40:15.914Z,9.87
2019-03-09T23:42:44.982Z,8.00
2019-03-09T23:45:16.369Z,11.77
2019-03-09T23:47:45.405Z,10.57
2019-03-09T23:50:16.201Z,6.07
2019-03-09T23:52:45.313Z,5.70
2019-03-09T23:55:22.123Z,9.77
2019-03-09T23:57:45.377Z,13.23
